createdAt,value
2022-12-19T00:00:11.925Z,101364.94
2022-12-19T00:03:02.269Z,101361.38
2022-12-19T00:05:29.698Z,101361.31
2022-12-19T00:07:57.261Z,101360.94
2022-12-19T00:10:26.187Z,101362.09
2022-12-19T00:12:53.231Z,101360.13
2022-12-19T00:15:20.607Z,101365.94
2022-12-19T00:17:47.588Z,101374.84
2022-12-19T00:20:14.988Z,101363.22
2022-12-19T00:22:45.893Z,101361.28
2022-12-19T00:25:13.386Z,101363.19
2022-12-19T00:27:41.396Z,101355.84
2022-12-19T00:30:09.527Z,101368.22
2022-12-19T00:32:37.699Z,101366.28
2022-12-19T00:35:05.274Z,101351.16
2022-12-19T00:37:36.901Z,101361.22
2022-12-19T00:40:08.551Z,101364.69
2022-12-19T00:42:38.831Z,101366.63
2022-12-19T00:45:06.616Z,101365.44
2022-12-19T00:47:33.542Z,101360.06
2022-12-19T00:50:00.819Z,101369.84
2022-12-19T00:52:27.967Z,101362.19
2022-12-19T00:54:57.760Z,101378.78
2022-12-19T00:57:24.804Z,101370.22
2022-12-19T00:59:52.145Z,101378.06
2022-12-19T01:02:19.497Z,101366.00
2022-12-19T01:04:49.530Z,101372.94
2022-12-19T01:07:16.503Z,101371.75
2022-12-19T01:09:43.775Z,101375.63
2022-12-19T01:12:34.056Z,101352.31
2022-12-19T01:15:04.340Z,101333.69
2022-12-19T01:17:35.534Z,101336.00
2022-12-19T01:20:28.974Z,101323.63
2022-12-19T01:22:58.824Z,101320.50
2022-12-19T01:25:28.465Z,101316.28
2022-12-19T01:27:56.703Z,101307.34
2022-12-19T01:30:24.373Z,101299.22
2022-12-19T01:32:53.975Z,101300.03
2022-12-19T01:35:22.482Z,101289.94
2022-12-19T01:37:55.856Z,101294.22
2022-12-19T01:40:36.495Z,101297.38
2022-12-19T01:43:04.246Z,101291.19
2022-12-19T01:45:42.188Z,101291.97
2022-12-19T01:48:32.421Z,101290.03
2022-12-19T01:51:19.993Z,101295.13
2022-12-19T01:53:54.898Z,101290.84
2022-12-19T01:56:28.143Z,101276.47
2022-12-19T01:59:05.055Z,101280.41
2022-12-19T02:01:51.926Z,101274.59
2022-12-19T02:04:26.331Z,101281.22
2022-12-19T02:07:01.048Z,101270.78
2022-12-19T02:09:36.967Z,101265.69
2022-12-19T02:12:05.898Z,101272.31
2022-12-19T02:14:36.772Z,101270.00
2022-12-19T02:17:34.577Z,101258.75
2022-12-19T02:20:19.855Z,101268.84
2022-12-19T02:23:00.155Z,101271.63
2022-12-19T02:25:50.046Z,101265.84
2022-12-19T02:28:43.527Z,101255.75
2022-12-19T02:31:16.643Z,101254.22
2022-12-19T02:34:08.636Z,101250.31
2022-12-19T02:36:48.610Z,101252.69
2022-12-19T02:39:30.474Z,101251.94
2022-12-19T02:42:04.335Z,101243.00
2022-12-19T02:44:52.958Z,101246.88
2022-12-19T02:47:22.152Z,101239.88
2022-12-19T02:49:49.624Z,101249.59
2022-12-19T02:52:20.229Z,101250.34
2022-12-19T02:54:53.495Z,101255.00
2022-12-19T02:57:33.885Z,101241.06
2022-12-19T03:00:06.501Z,101245.31
2022-12-19T03:02:43.405Z,101227.50
2022-12-19T03:05:54.829Z,101236.03
2022-12-19T03:08:28.778Z,101225.88
2022-12-19T03:11:06.150Z,101228.19
2022-12-19T03:13:41.490Z,101240.22
2022-12-19T03:16:11.127Z,101230.13
2022-12-19T03:18:39.509Z,101228.91
2022-12-19T03:21:42.157Z,101222.66
2022-12-19T03:24:16.975Z,101245.16
2022-12-19T03:26:54.260Z,101246.31
2022-12-19T03:29:32.987Z,101245.47
2022-12-19T03:32:04.348Z,101243.91
2022-12-19T03:34:39.685Z,101250.09
2022-12-19T03:37:14.083Z,101239.19
2022-12-19T03:39:43.720Z,101243.81
2022-12-19T03:42:32.812Z,101242.59
2022-12-19T03:45:04.069Z,101249.56
2022-12-19T03:47:36.108Z,101239.06
2022-12-19T03:50:04.830Z,101244.44
2022-12-19T03:53:02.461Z,101238.22
2022-12-19T03:55:41.780Z,101241.31
2022-12-19T03:58:33.709Z,101236.66
2022-12-19T04:01:03.711Z,101223.81
2022-12-19T04:03:32.118Z,101226.88
2022-12-19T04:06:03.887Z,101231.19
2022-12-19T04:08:32.968Z,101220.31
2022-12-19T04:11:14.219Z,101230.81
2022-12-19T04:13:49.244Z,101230.81
2022-12-19T04:16:27.687Z,101218.41
2022-12-19T04:19:03.473Z,101218.03
2022-12-19T04:21:41.269Z,101219.63
2022-12-19T04:24:14.557Z,101218.91
2022-12-19T04:26:44.795Z,101221.97
2022-12-19T04:29:14.721Z,101223.97
2022-12-19T04:31:42.854Z,101228.25
2022-12-19T04:34:12.710Z,101222.03
2022-12-19T04:36:39.797Z,101222.06
2022-12-19T04:39:09.270Z,101225.16
2022-12-19T04:41:36.308Z,101230.22
2022-12-19T04:44:03.877Z,101229.47
2022-12-19T04:46:30.887Z,101210.47
2022-12-19T04:49:00.952Z,101219.78
2022-12-19T04:51:27.890Z,101214.72
2022-12-19T04:53:55.275Z,101207.38
2022-12-19T04:56:22.473Z,101207.38
2022-12-19T04:58:49.769Z,101200.03
2022-12-19T05:01:18.672Z,101197.72
2022-12-19T05:03:54.052Z,101194.28
2022-12-19T05:06:23.000Z,101200.13
2022-12-19T05:08:50.285Z,101206.72
2022-12-19T05:11:19.694Z,101201.31
2022-12-19T05:13:50.095Z,101197.81
2022-12-19T05:16:17.784Z,101199.00
2022-12-19T05:18:45.423Z,101196.31
2022-12-19T05:21:12.535Z,101208.38
2022-12-19T05:23:40.125Z,101199.47
2022-12-19T05:26:08.339Z,101203.75
2022-12-19T05:28:35.816Z,101197.19
2022-12-19T05:31:07.621Z,101204.13
2022-12-19T05:33:38.228Z,101197.59
2022-12-19T05:36:06.106Z,101201.09
2022-12-19T05:38:33.443Z,101201.53
2022-12-19T05:41:00.537Z,101202.31
2022-12-19T05:43:32.564Z,101201.16
2022-12-19T05:45:59.563Z,101206.25
2022-12-19T05:48:29.520Z,101210.09
2022-12-19T05:50:56.513Z,101216.72
2022-12-19T05:53:26.143Z,101214.38
2022-12-19T05:56:08.640Z,101213.25
2022-12-19T05:58:36.970Z,101214.03
2022-12-19T06:01:12.104Z,101209.38
2022-12-19T06:03:39.687Z,101215.19
2022-12-19T06:06:11.325Z,101207.06
2022-12-19T06:08:39.218Z,101214.06
2022-12-19T06:11:07.939Z,101214.84
2022-12-19T06:13:36.617Z,101216.41
2022-12-19T06:16:07.634Z,101206.72
2022-12-19T06:18:36.689Z,101212.94
2022-12-19T06:21:12.918Z,101220.31
2022-12-19T06:23:40.765Z,101220.31
2022-12-19T06:26:14.241Z,101234.28
2022-12-19T06:28:46.020Z,101223.06
2022-12-19T06:31:16.711Z,101210.25
2022-12-19T06:33:44.054Z,101204.81
2022-12-19T06:36:15.991Z,101214.91
2022-12-19T06:38:43.353Z,101218.75
2022-12-19T06:41:30.242Z,101224.16
2022-12-19T06:44:02.172Z,101235.38
2022-12-19T06:46:29.982Z,101235.38
2022-12-19T06:48:57.451Z,101225.28
2022-12-19T06:51:24.487Z,101226.81
2022-12-19T06:53:52.338Z,101230.28
2022-12-19T06:56:21.913Z,101238.44
2022-12-19T06:58:49.621Z,101269.81
2022-12-19T07:01:22.186Z,101247.72
2022-12-19T07:03:50.203Z,101252.38
2022-12-19T07:06:17.256Z,101255.81
2022-12-19T07:08:44.988Z,101255.44
2022-12-19T07:11:12.194Z,101247.31
2022-12-19T07:13:39.606Z,101249.28
2022-12-19T07:16:07.143Z,101252.44
2022-12-19T07:18:37.055Z,101268.34
2022-12-19T07:21:05.055Z,101271.03
2022-12-19T07:23:35.191Z,101280.69
2022-12-19T07:26:02.284Z,101269.13
2022-12-19T07:28:29.848Z,101279.19
2022-12-19T07:30:56.866Z,101276.47
2022-12-19T07:33:26.928Z,101279.97
2022-12-19T07:35:54.080Z,101287.75
2022-12-19T07:38:21.537Z,101292.00
2022-12-19T07:40:48.530Z,101281.56
2022-12-19T07:43:15.996Z,101281.94
2022-12-19T07:45:43.246Z,101296.31
2022-12-19T07:48:10.584Z,101293.97
2022-12-19T07:50:37.722Z,101288.91
2022-12-19T07:53:04.992Z,101297.41
2022-12-19T07:55:34.716Z,101301.31
2022-12-19T07:58:02.105Z,101298.22
2022-12-19T08:00:29.201Z,101312.56
2022-12-19T08:02:56.615Z,101295.47
2022-12-19T08:05:23.932Z,101314.84
2022-12-19T08:07:55.095Z,101310.19
2022-12-19T08:10:23.177Z,101313.69
2022-12-19T08:12:50.649Z,101311.72
2022-12-19T08:15:18.004Z,101319.44
2022-12-19T08:17:45.424Z,101307.06
2022-12-19T08:20:13.501Z,101308.97
2022-12-19T08:22:40.723Z,101311.66
2022-12-19T08:25:08.346Z,101318.66
2022-12-19T08:27:40.720Z,101305.44
2022-12-19T08:30:14.286Z,101330.25
2022-12-19T08:32:41.691Z,101322.47
2022-12-19T08:35:09.220Z,101337.56
2022-12-19T08:37:36.961Z,101318.56
2022-12-19T08:40:04.297Z,101328.28
2022-12-19T08:42:31.571Z,101348.00
2022-12-19T08:44:58.794Z,101342.91
2022-12-19T08:47:26.088Z,101339.38
2022-12-19T08:49:53.088Z,101341.66
2022-12-19T08:52:20.474Z,101341.66
2022-12-19T08:54:47.489Z,101333.94
2022-12-19T08:57:15.380Z,101333.19
2022-12-19T08:59:42.661Z,101322.31
2022-12-19T09:02:11.486Z,101333.53
2022-12-19T09:05:57.404Z,101336.19
2022-12-19T09:07:25.918Z,101327.31
2022-12-19T09:09:54.059Z,101340.09
2022-12-19T09:12:21.117Z,101330.81
2022-12-19T09:14:48.466Z,101349.06
2022-12-19T09:17:15.602Z,101339.31
2022-12-19T09:19:47.430Z,101341.97
2022-12-19T09:22:17.570Z,101354.75
2022-12-19T09:24:45.877Z,101365.63
2022-12-19T09:27:14.157Z,101348.91
2022-12-19T09:29:44.566Z,101337.66
2022-12-19T09:32:12.323Z,101360.09
2022-12-19T09:34:42.129Z,101358.94
2022-12-19T09:37:15.824Z,101354.97
2022-12-19T09:39:44.189Z,101352.19
2022-12-19T09:42:56.625Z,101349.06
2022-12-19T09:45:43.225Z,101343.63
2022-12-19T09:48:24.027Z,101351.44
2022-12-19T09:50:57.010Z,101343.28
2022-12-19T09:53:59.715Z,101340.41
2022-12-19T09:56:45.769Z,101350.44
2022-12-19T09:59:28.152Z,101345.00
2022-12-19T10:02:48.519Z,101349.63
2022-12-19T10:06:22.323Z,101355.47
2022-12-19T10:08:18.118Z,101345.00
2022-12-19T10:12:40.314Z,101372.53
2022-12-19T10:14:19.045Z,101360.91
2022-12-19T10:17:23.809Z,101361.31
2022-12-19T10:20:12.927Z,101359.78
2022-12-19T10:22:39.876Z,101350.81
2022-12-19T10:25:13.284Z,101367.13
2022-12-19T10:28:00.678Z,101358.19
2022-12-19T10:30:36.024Z,101363.56
2022-12-19T10:33:07.300Z,101365.16
2022-12-19T10:35:43.438Z,101355.06
2022-12-19T10:38:27.197Z,101352.28
2022-12-19T10:41:10.404Z,101344.91
2022-12-19T10:44:00.164Z,101340.19
2022-12-19T10:46:41.735Z,101349.00
2022-12-19T10:49:17.108Z,101342.06
2022-12-19T10:51:58.993Z,101331.59
2022-12-19T10:54:38.604Z,101328.41
2022-12-19T10:57:30.133Z,101323.75
2022-12-19T11:00:17.348Z,101320.53
2022-12-19T11:02:51.772Z,101323.59
2022-12-19T11:05:24.791Z,101315.78
2022-12-19T11:08:04.036Z,101308.91
2022-12-19T11:12:45.217Z,101333.44
2022-12-19T11:18:10.853Z,101320.63
2022-12-19T11:21:32.055Z,101320.63
2022-12-19T11:29:18.620Z,101294.97
2022-12-19T11:29:34.556Z,101297.72
2022-12-19T11:30:41.453Z,101287.88
2022-12-19T11:30:46.938Z,101269.22
2022-12-19T11:34:23.575Z,101262.50
2022-12-19T11:37:03.448Z,101263.22
2022-12-19T11:39:48.022Z,101267.88
2022-12-19T11:42:24.121Z,101246.19
2022-12-19T11:44:54.027Z,101235.69
2022-12-19T11:47:21.477Z,101232.47
2022-12-19T11:49:57.099Z,101234.53
2022-12-19T11:55:54.405Z,101216.63
2022-12-19T11:58:28.670Z,101208.88
2022-12-19T12:01:20.625Z,101210.75
2022-12-19T12:04:13.868Z,101206.78
2022-12-19T12:06:50.031Z,101227.84
2022-12-19T12:12:18.223Z,101230.50
2022-12-19T12:18:43.599Z,101226.53
2022-12-19T12:27:49.994Z,101218.78
2022-12-19T12:31:21.386Z,101209.06
2022-12-19T12:31:26.457Z,101214.09
2022-12-19T12:31:45.375Z,101225.06
2022-12-19T12:31:48.868Z,101218.72
2022-12-19T12:35:32.948Z,101197.44
2022-12-19T12:35:52.126Z,101218.09
2022-12-19T12:40:06.833Z,101204.44
2022-12-19T12:42:43.813Z,101192.41
2022-12-19T12:45:25.151Z,101199.41
2022-12-19T12:47:53.486Z,101182.34
2022-12-19T12:50:24.278Z,101185.75
2022-12-19T12:52:58.946Z,101188.38
2022-12-19T12:55:33.915Z,101182.16
2022-12-19T12:58:01.172Z,101193.03
2022-12-19T13:00:36.032Z,101192.66
2022-12-19T13:03:11.250Z,101192.25
2022-12-19T13:06:06.102Z,101193.81
2022-12-19T13:08:35.636Z,101191.19
2022-12-19T13:11:38.504Z,101204.34
2022-12-19T13:14:38.692Z,101198.91
2022-12-19T13:17:30.461Z,101201.25
2022-12-19T13:20:35.015Z,101193.44
2022-12-19T13:23:19.360Z,101194.28
2022-12-19T13:25:52.841Z,101203.56
2022-12-19T13:28:22.889Z,101199.69
2022-12-19T13:31:18.451Z,101195.75
2022-12-19T13:33:53.524Z,101203.56
2022-12-19T13:39:58.317Z,101210.50
2022-12-19T13:40:12.293Z,101198.47
2022-12-19T13:43:11.469Z,101184.44
2022-12-19T13:45:42.746Z,101182.47
2022-12-19T13:48:16.666Z,101182.47
2022-12-19T13:50:48.010Z,101181.31
2022-12-19T13:53:19.466Z,101195.72
2022-12-19T13:55:46.999Z,101185.53
2022-12-19T13:58:30.166Z,101186.28
2022-12-19T14:01:07.069Z,101186.28
2022-12-19T14:03:42.324Z,101180.16
2022-12-19T14:06:22.019Z,101176.28
2022-12-19T14:09:20.231Z,101182.88
2022-12-19T14:13:44.441Z,101178.59
2022-12-19T14:14:57.297Z,101186.28
2022-12-19T14:17:39.370Z,101189.38
2022-12-19T14:22:01.650Z,101186.72
2022-12-19T14:23:12.815Z,101188.53
2022-12-19T14:28:17.300Z,101189.31
2022-12-19T14:28:47.580Z,101209.59
2022-12-19T14:31:18.642Z,101192.88
2022-12-19T14:34:35.546Z,101186.25
2022-12-19T14:36:39.121Z,101182.78
2022-12-19T14:39:27.716Z,101185.53
2022-12-19T14:42:24.279Z,101169.25
2022-12-19T14:52:25.447Z,101159.19
2022-12-19T14:54:06.702Z,101151.78
2022-12-19T14:54:21.292Z,101148.66
2022-12-19T14:57:29.165Z,101137.06
2022-12-19T15:01:07.516Z,101142.88
2022-12-19T15:03:39.727Z,101140.16
2022-12-19T15:07:09.740Z,101150.38
2022-12-19T15:11:08.133Z,101137.50
2022-12-19T15:14:48.855Z,101146.09
2022-12-19T15:15:24.084Z,101156.56
2022-12-19T15:17:54.511Z,101159.28
2022-12-19T15:20:22.401Z,101165.88
2022-12-19T15:22:51.673Z,101176.81
2022-12-19T15:25:52.746Z,101168.22
2022-12-19T15:28:16.518Z,101171.72
2022-12-19T15:30:53.024Z,101178.28
2022-12-19T15:33:20.035Z,101171.66
2022-12-19T15:35:47.755Z,101174.03
2022-12-19T15:38:14.759Z,101165.44
2022-12-19T15:40:45.446Z,101182.19
2022-12-19T15:44:01.151Z,101185.66
2022-12-19T15:46:12.823Z,101204.69
2022-12-19T15:48:45.829Z,101202.03
2022-12-19T15:51:14.204Z,101212.88
2022-12-19T15:53:42.089Z,101198.84
2022-12-19T15:56:30.538Z,101183.28
2022-12-19T15:59:00.815Z,101189.13
2022-12-19T16:01:33.002Z,101196.47
2022-12-19T16:04:03.535Z,101191.84
2022-12-19T16:06:30.969Z,101178.53
2022-12-19T16:09:01.277Z,101181.25
2022-12-19T16:11:29.248Z,101185.59
2022-12-19T16:13:58.683Z,101170.78
2022-12-19T16:16:26.067Z,101177.06
2022-12-19T16:18:53.160Z,101180.16
2022-12-19T16:21:29.232Z,101180.56
2022-12-19T16:24:02.711Z,101176.28
2022-12-19T16:26:34.470Z,101167.34
2022-12-19T16:29:02.182Z,101158.06
2022-12-19T16:31:29.653Z,101167.34
2022-12-19T16:33:57.560Z,101159.94
2022-12-19T16:36:24.884Z,101163.41
2022-12-19T16:38:51.881Z,101158.00
2022-12-19T16:41:23.231Z,101158.00
2022-12-19T16:43:53.107Z,101148.28
2022-12-19T16:46:23.800Z,101141.31
2022-12-19T16:48:51.000Z,101131.63
2022-12-19T16:51:23.735Z,101137.13
2022-12-19T16:53:53.401Z,101129.28
2022-12-19T16:56:34.672Z,101116.44
2022-12-19T16:59:06.351Z,101112.63
2022-12-19T17:01:34.369Z,101099.81
2022-12-19T17:04:01.449Z,101102.91
2022-12-19T17:06:28.824Z,101105.19
2022-12-19T17:08:58.841Z,101099.00
2022-12-19T17:11:26.561Z,101109.91
2022-12-19T17:14:01.538Z,101121.13
2022-12-19T17:16:32.707Z,101106.34
2022-12-19T17:19:00.943Z,101109.06
2022-12-19T17:21:30.903Z,101107.50
2022-12-19T17:23:57.945Z,101114.91
2022-12-19T17:26:27.564Z,101103.25
2022-12-19T17:28:55.866Z,101107.50
2022-12-19T17:31:24.648Z,101114.56
2022-12-19T17:33:52.373Z,101114.91
2022-12-19T17:36:25.430Z,101125.75
2022-12-19T17:38:53.876Z,101123.84
2022-12-19T17:41:21.144Z,101132.00
2022-12-19T17:43:51.184Z,101134.41
2022-12-19T17:46:20.487Z,101141.06
2022-12-19T17:48:51.282Z,101131.41
2022-12-19T17:51:20.716Z,101143.88
2022-12-19T17:53:48.023Z,101136.06
2022-12-19T17:56:18.055Z,101126.03
2022-12-19T17:58:45.254Z,101118.28
2022-12-19T18:01:24.505Z,101120.59
2022-12-19T18:03:58.657Z,101112.00
2022-12-19T18:06:26.013Z,101104.66
2022-12-19T18:08:53.067Z,101097.25
2022-12-19T18:11:26.712Z,101097.25
2022-12-19T18:13:56.073Z,101118.97
2022-12-19T18:16:31.078Z,101103.06
2022-12-19T18:18:58.462Z,101108.09
2022-12-19T18:21:25.986Z,101110.06
2022-12-19T18:23:53.041Z,101114.66
2022-12-19T18:26:20.357Z,101107.63
2022-12-19T18:28:47.916Z,101097.50
2022-12-19T18:31:20.997Z,101094.00
2022-12-19T18:33:48.680Z,101093.25
2022-12-19T18:36:34.393Z,101107.63
2022-12-19T18:39:01.542Z,101090.47
2022-12-19T18:41:28.964Z,101091.28
2022-12-19T18:43:56.166Z,101084.31
2022-12-19T18:46:27.889Z,101084.72
2022-12-19T18:48:58.233Z,101085.50
2022-12-19T18:51:28.132Z,101078.50
2022-12-19T18:53:57.592Z,101082.00
2022-12-19T18:56:25.049Z,101072.22
2022-12-19T18:58:52.109Z,101065.25
2022-12-19T19:01:27.137Z,101076.16
2022-12-19T19:03:56.976Z,101060.53
2022-12-19T19:06:27.491Z,101062.53
2022-12-19T19:08:56.995Z,101059.81
2022-12-19T19:11:43.200Z,101063.31
2022-12-19T19:14:11.693Z,101071.13
2022-12-19T19:16:41.794Z,101074.94
2022-12-19T19:19:14.576Z,101066.16
2022-12-19T19:21:42.864Z,101063.44
2022-12-19T19:24:16.961Z,101073.19
2022-12-19T19:26:47.050Z,101077.84
2022-12-19T19:29:15.074Z,101061.94
2022-12-19T19:31:46.071Z,101084.13
2022-12-19T19:34:27.348Z,101067.00
2022-12-19T19:36:59.472Z,101072.06
2022-12-19T19:39:32.229Z,101075.16
2022-12-19T19:42:03.669Z,101078.25
2022-12-19T19:44:33.353Z,101067.84
2022-12-19T19:47:00.688Z,101053.88
2022-12-19T19:49:27.880Z,101053.13
2022-12-19T19:52:02.013Z,101053.88
2022-12-19T19:54:30.393Z,101051.16
2022-12-19T19:56:58.514Z,101048.44
2022-12-19T19:59:25.770Z,101050.03
2022-12-19T20:01:54.425Z,101061.69
2022-12-19T20:04:22.172Z,101052.75
2022-12-19T20:06:49.943Z,101055.53
2022-12-19T20:09:19.593Z,101039.56
2022-12-19T20:11:47.057Z,101048.09
2022-12-19T20:14:14.650Z,101046.13
2022-12-19T20:16:43.610Z,101041.88
2022-12-19T20:19:10.846Z,101031.41
2022-12-19T20:21:38.185Z,101038.44
2022-12-19T20:24:05.780Z,101043.88
2022-12-19T20:26:33.367Z,101046.19
2022-12-19T20:29:01.064Z,101056.69
2022-12-19T20:31:32.631Z,101047.38
2022-12-19T20:34:00.161Z,101051.25
2022-12-19T20:36:28.080Z,101049.38
2022-12-19T20:38:55.932Z,101044.34
2022-12-19T20:41:23.845Z,101053.28
2022-12-19T20:43:53.053Z,101040.84
2022-12-19T20:46:21.871Z,101025.31
2022-12-19T20:48:54.535Z,101037.72
2022-12-19T20:51:24.333Z,101033.88
2022-12-19T20:53:54.897Z,101024.88
2022-12-19T20:56:23.538Z,101022.94
2022-12-19T20:58:50.709Z,101010.13
2022-12-19T21:01:20.722Z,101001.97
2022-12-19T21:03:50.831Z,101009.34
2022-12-19T21:06:20.579Z,101004.31
2022-12-19T21:08:48.040Z,101005.44
2022-12-19T21:11:15.975Z,101025.25
2022-12-19T21:13:43.555Z,101022.16
2022-12-19T21:16:17.165Z,101042.34
2022-12-19T21:18:46.246Z,101044.66
2022-12-19T21:21:25.198Z,101024.78
2022-12-19T21:23:53.142Z,101042.72
2022-12-19T21:26:21.618Z,101032.56
2022-12-19T21:28:51.225Z,101028.69
2022-12-19T21:31:22.004Z,101043.81
2022-12-19T21:33:49.750Z,101049.25
2022-12-19T21:36:20.321Z,101030.22
2022-12-19T21:38:53.596Z,101015.84
2022-12-19T21:41:21.321Z,101012.78
2022-12-19T21:43:53.672Z,101006.94
2022-12-19T21:46:26.974Z,100988.63
2022-12-19T21:48:55.557Z,101001.91
2022-12-19T21:51:28.127Z,101010.44
2022-12-19T21:53:56.719Z,101020.53
2022-12-19T21:56:27.468Z,100998.75
2022-12-19T21:58:59.898Z,101006.56
2022-12-19T22:01:28.416Z,100995.69
2022-12-19T22:04:06.575Z,100999.25
2022-12-19T22:06:35.364Z,100991.06
2022-12-19T22:09:04.004Z,100994.13
2022-12-19T22:11:32.009Z,100979.41
2022-12-19T22:14:00.862Z,100977.84
2022-12-19T22:16:29.448Z,100984.84
2022-12-19T22:18:56.673Z,100973.63
2022-12-19T22:21:24.342Z,100981.78
2022-12-19T22:23:52.810Z,100992.66
2022-12-19T22:26:22.776Z,100990.78
2022-12-19T22:28:52.395Z,100984.56
2022-12-19T22:31:21.453Z,100981.88
2022-12-19T22:33:50.383Z,100967.09
2022-12-19T22:36:25.794Z,100957.81
2022-12-19T22:38:58.519Z,100952.44
2022-12-19T22:41:27.117Z,100965.63
2022-12-19T22:43:54.605Z,100973.06
2022-12-19T22:46:34.020Z,100963.00
2022-12-19T22:49:04.871Z,100954.84
2022-12-19T22:51:34.944Z,100965.78
2022-12-19T22:54:02.534Z,100950.25
2022-12-19T22:56:32.527Z,100948.75
2022-12-19T22:59:02.363Z,100944.94
2022-12-19T23:01:35.616Z,100952.66
2022-12-19T23:04:04.759Z,100963.59
2022-12-19T23:06:34.901Z,100951.53
2022-12-19T23:09:04.815Z,100952.38
2022-12-19T23:11:35.554Z,100953.50
2022-12-19T23:14:06.983Z,100945.75
2022-12-19T23:16:34.527Z,100940.31
2022-12-19T23:19:01.812Z,100945.75
2022-12-19T23:21:29.621Z,100951.19
2022-12-19T23:23:58.978Z,100946.09
2022-12-19T23:26:31.817Z,100943.44
2022-12-19T23:29:01.670Z,100936.41
2022-12-19T23:31:30.242Z,100933.75
2022-12-19T23:33:59.226Z,100940.38
2022-12-19T23:37:08.357Z,100951.25
2022-12-19T23:39:15.167Z,100952.78
2022-12-19T23:41:42.506Z,100953.97
2022-12-19T23:44:10.222Z,100945.81
2022-12-19T23:46:37.766Z,100953.25
2022-12-19T23:49:04.887Z,100947.41
2022-12-19T23:51:32.371Z,100947.41
2022-12-19T23:53:59.487Z,100943.53
2022-12-19T23:56:29.536Z,100937.34
2022-12-19T23:58:57.647Z,100929.94
